Richland, Iowa
Current Conditions -  °F | °C
As of 7:55 PM on Saturday 22 Nov 2014 (Local Time) from KFFL Reporting Station
Few Clouds Few Clouds  
Wind Chill: 54°   Ceiling: Unl
Heat Index: 54°   Visibility: NA
Dew Point: 48°   Wind: 15mph
Humidity: 82%   Direction: 180°S
Pressure: 29.75"   Gusts: NA
Location:  41.19°N, 91.99°W
Report Text: KFFL 230155Z AUTO 18013KT FEW026 12/09 A2975 RMK AO2
Loading
Personal Weather Stations






























Interactive Weather Map New forecast layout! Learn more

10-Day Weather Forecast

Advertisements
Track Severe Weather on mobile